createdAt,value
2023-04-25T00:03:22.822Z,16.19
2023-04-25T00:08:24.111Z,15.62
2023-04-25T00:13:31.571Z,15.92
2023-04-25T00:18:40.078Z,15.46
2023-04-25T00:23:39.986Z,15.91
2023-04-25T00:28:45.715Z,15.65
2023-04-25T00:33:47.172Z,15.68
2023-04-25T00:38:47.899Z,15.75
2023-04-25T00:43:53.129Z,15.68
2023-04-25T00:48:52.438Z,15.30
2023-04-25T00:53:53.574Z,15.52
2023-04-25T00:58:56.849Z,15.36
2023-04-25T01:03:55.883Z,15.56
2023-04-25T01:08:55.248Z,15.23
2023-04-25T01:13:55.772Z,15.95
2023-04-25T01:18:58.131Z,15.66
2023-04-25T01:23:56.975Z,15.75
2023-04-25T01:28:59.383Z,15.82
2023-04-25T01:34:01.706Z,16.17
2023-04-25T01:39:01.858Z,16.09
2023-04-25T01:44:02.753Z,16.12
2023-04-25T01:49:02.530Z,16.22
2023-04-25T01:54:05.439Z,16.10
2023-04-25T01:59:03.275Z,16.14
2023-04-25T02:04:20.310Z,16.06
2023-04-25T02:09:28.163Z,16.08
2023-04-25T02:14:32.000Z,16.15
2023-04-25T02:19:42.890Z,16.22
2023-04-25T02:24:44.625Z,16.14
2023-04-25T02:29:44.237Z,16.20
2023-04-25T02:34:44.621Z,16.14
2023-04-25T02:39:44.279Z,15.86
2023-04-25T02:44:45.071Z,15.96
2023-04-25T02:49:47.312Z,15.78
2023-04-25T02:54:45.699Z,15.97
2023-04-25T02:59:47.407Z,16.00
2023-04-25T03:04:47.541Z,15.63
2023-04-25T03:09:51.953Z,15.03
2023-04-25T03:14:54.361Z,15.56
2023-04-25T03:19:53.150Z,15.32
2023-04-25T03:25:04.497Z,15.23
2023-04-25T03:30:04.397Z,14.92
2023-04-25T03:35:05.182Z,15.33
2023-04-25T03:40:06.184Z,15.32
2023-04-25T03:45:26.637Z,15.23
2023-04-25T03:50:28.886Z,14.82
2023-04-25T03:55:31.919Z,14.85
2023-04-25T04:00:32.146Z,15.24
2023-04-25T04:05:34.064Z,15.60
2023-04-25T04:10:42.561Z,14.91
2023-04-25T04:15:46.612Z,14.92
2023-04-25T04:20:45.637Z,14.40
2023-04-25T04:25:44.852Z,14.86
2023-04-25T04:30:58.878Z,14.77
2023-04-25T04:36:00.270Z,15.15
2023-04-25T04:41:06.151Z,15.76
2023-04-25T04:46:29.330Z,15.61
2023-04-25T04:52:00.738Z,15.74
2023-04-25T04:57:09.140Z,15.57
2023-04-25T05:02:24.079Z,15.70
2023-04-25T05:07:51.698Z,15.41
2023-04-25T05:13:12.898Z,14.93
2023-04-25T05:18:33.402Z,14.71
2023-04-25T05:23:57.122Z,14.79
2023-04-25T05:29:26.546Z,15.05
2023-04-25T05:34:48.491Z,15.12
2023-04-25T05:39:58.048Z,14.98
2023-04-25T05:45:07.770Z,14.14
2023-04-25T05:50:30.696Z,13.97
2023-04-25T05:55:59.652Z,13.93
2023-04-25T06:01:00.618Z,13.62
2023-04-25T06:06:02.590Z,13.94
2023-04-25T06:11:04.253Z,14.21
2023-04-25T06:16:04.529Z,14.66
2023-04-25T06:21:03.726Z,14.29
2023-04-25T06:26:06.665Z,14.15
2023-04-25T06:31:08.948Z,14.78
2023-04-25T06:36:07.654Z,14.51
2023-04-25T06:41:08.360Z,13.89
2023-04-25T06:46:09.087Z,14.19
2023-04-25T06:51:18.881Z,14.97
2023-04-25T06:56:32.090Z,15.43
2023-04-25T07:01:42.560Z,15.58
2023-04-25T07:06:48.662Z,15.98
2023-04-25T07:11:55.502Z,15.71
2023-04-25T07:16:58.280Z,16.25
2023-04-25T07:21:59.443Z,16.26
2023-04-25T07:26:59.388Z,16.40
2023-04-25T07:32:02.623Z,16.39
2023-04-25T07:37:02.366Z,16.36
2023-04-25T07:42:11.409Z,16.53
2023-04-25T07:47:15.134Z,16.83
2023-04-25T07:52:13.494Z,16.87
2023-04-25T07:57:20.412Z,15.86
2023-04-25T08:02:21.060Z,16.44
2023-04-25T08:07:21.196Z,16.78
2023-04-25T08:12:24.167Z,17.56
2023-04-25T08:17:29.044Z,17.78
2023-04-25T08:22:29.742Z,18.08
2023-04-25T08:27:46.344Z,18.23
2023-04-25T08:32:44.241Z,18.30
2023-04-25T08:38:02.376Z,18.52
2023-04-25T08:43:14.433Z,18.56
2023-04-25T08:48:17.605Z,18.29
2023-04-25T08:53:36.144Z,17.67
2023-04-25T08:58:37.587Z,17.06
2023-04-25T09:03:37.788Z,17.32
2023-04-25T09:08:38.579Z,17.25
2023-04-25T09:13:38.757Z,17.24
2023-04-25T09:19:01.263Z,17.90
2023-04-25T09:24:01.725Z,17.52
2023-04-25T09:29:11.900Z,17.69
2023-04-25T09:34:28.433Z,17.58
2023-04-25T09:39:32.868Z,17.64
2023-04-25T09:44:44.419Z,17.90
2023-04-25T09:49:50.769Z,18.32
2023-04-25T10:07:15.694Z,19.61
2023-04-25T10:12:17.969Z,20.00
2023-04-25T10:17:21.384Z,19.27
2023-04-25T10:22:25.538Z,20.54
2023-04-25T10:27:27.115Z,20.67
2023-04-25T10:32:29.507Z,21.21
2023-04-25T10:38:01.068Z,21.53
2023-04-25T10:43:32.979Z,21.75
2023-04-25T10:48:32.866Z,21.39
2023-04-25T10:53:35.255Z,21.69
2023-04-25T10:58:33.617Z,21.78
2023-04-25T11:03:42.980Z,21.94
2023-04-25T11:08:53.130Z,21.47
2023-04-25T11:13:55.158Z,21.36
2023-04-25T11:18:56.810Z,21.17
2023-04-25T11:24:02.123Z,21.30
2023-04-25T11:29:02.890Z,21.08
2023-04-25T11:34:04.189Z,20.65
2023-04-25T11:39:07.322Z,20.25
2023-04-25T11:44:09.711Z,19.77
2023-04-25T11:49:10.990Z,18.59
2023-04-25T11:54:10.058Z,18.14
2023-04-25T11:59:18.777Z,18.42
2023-04-25T12:04:22.104Z,18.66
2023-04-25T12:09:22.770Z,18.97
2023-04-25T12:14:34.475Z,19.04
2023-04-25T12:19:38.002Z,19.74
2023-04-25T12:24:40.534Z,19.55
2023-04-25T12:29:52.730Z,19.59
2023-04-25T12:34:53.013Z,20.30
2023-04-25T12:39:54.992Z,21.01
2023-04-25T12:44:57.422Z,21.53
2023-04-25T12:50:00.357Z,21.64
2023-04-25T12:55:01.194Z,21.95
2023-04-25T13:00:01.906Z,21.72
2023-04-25T13:05:02.794Z,22.06
2023-04-25T13:10:04.328Z,23.52
2023-04-25T13:15:05.935Z,25.24
2023-04-25T13:20:19.674Z,26.17
2023-04-25T13:25:20.284Z,25.76
2023-04-25T13:30:39.002Z,25.98
2023-04-25T13:36:12.641Z,24.63
2023-04-25T13:41:22.518Z,23.06
2023-04-25T13:51:38.070Z,22.10
2023-04-25T13:56:38.434Z,22.43
2023-04-25T14:01:40.658Z,22.72
2023-04-25T14:06:50.613Z,22.73
2023-04-25T14:11:53.832Z,22.75
2023-04-25T14:16:57.215Z,22.23
2023-04-25T14:21:59.120Z,22.19
2023-04-25T14:26:59.968Z,21.59
2023-04-25T14:32:04.544Z,21.44
2023-04-25T14:37:04.034Z,21.57
2023-04-25T14:42:08.156Z,21.30
2023-04-25T14:47:08.433Z,20.87
2023-04-25T14:52:07.482Z,19.30
2023-04-25T14:57:17.857Z,17.48
2023-04-25T15:02:31.437Z,15.51
2023-04-25T15:07:33.622Z,14.45
2023-04-25T15:12:32.488Z,14.05
2023-04-25T15:17:37.295Z,14.06
2023-04-25T15:22:36.746Z,14.01
2023-04-25T15:27:41.106Z,14.37
2023-04-25T15:32:43.687Z,14.53
2023-04-25T15:37:43.008Z,14.65
2023-04-25T15:42:48.137Z,14.56
2023-04-25T15:47:57.588Z,14.62
2023-04-25T15:53:25.326Z,14.46
2023-04-25T15:58:29.083Z,14.33
2023-04-25T16:03:36.384Z,14.51
2023-04-25T16:08:37.653Z,15.16
2023-04-25T16:13:39.845Z,15.46
